Weather at Aeropuerto Internacional Lic. Benito Juárez

Public forecast

Using degrees Celsius for public forecast. Weather courtesy of forecast.io.

Current aviation weather report (METAR) for Aeropuerto Internacional Lic. Benito Juárez

2024/02/24 02:45 (retrieved 37 minutes ago)

MMMX 240245Z 02010KT 9SM SKC 21/04 A3028 NOSIG RMK SLP093 52023 952 HZY

Closest aviation forecast (TAF) to Aeropuerto Internacional Lic. Benito Juárez

Forecast is more than 6 hours old.

Closest forecast is Aeropuerto Internacional Mariano Matamoros, 37.7 nm (69.7 km) SSW.

2024/02/23 18:06 (retrieved 9 hours ago)

TAF TAF MMCB 231603Z 2318/2418 16008KT P6SM SKC FM240300 00000KT P6SM SKC FM241600 14004KT P6SM SKC